Hamburg, Louisiana
Current Conditions -  °F | °C
As of 10:15 AM on Thursday 18 Dec 2014 (Local Time) from KOPL Reporting Station
Overcast Overcast  
Wind Chill: 14°   Ceiling: 2600
Heat Index: 14°   Visibility: 10mi
Dew Point:   Wind: 8mph
Humidity: 72%   Direction: 130°SE
Pressure: 30.15"   Gusts: NA
Location:  31.03°N, 91.93°W
Report Text: KOPL 181615Z AUTO 13007KT 10SM BKN026 OVC031 14/09 A3015 RMK AO2 T01360087
Loading
Personal Weather Stations






























Interactive Weather Map New forecast layout! Learn more

10-Day Weather Forecast

Advertisements
Track Severe Weather on mobile